Time;durP1;ratioP1;P1;durP2;ratioP2;P2;SDS_P1;SDS_P2;PMS_P1;PMS_P2;Temp;Humidity;BMP_temperature;BMP_pressure;BME280_temperature;BME280_humidity;BME280_pressure;Samples;Min_cycle;Max_cycle;Signal;HPM_P1;HPM_P2
2023/05/31 00:00:16;;;;;;;4.80;2.58;;;8.90;99.90;;;;;;5005251;28;20043;-85
2023/05/31 00:02:42;;;;;;;5.55;2.45;;;8.80;99.90;;;;;;5018688;28;20073;-85
2023/05/31 00:05:08;;;;;;;3.85;2.35;;;8.80;99.90;;;;;;4986620;28;20507;-85
2023/05/31 00:07:34;;;;;;;4.70;2.22;;;8.80;99.90;;;;;;5004747;28;20577;-86
2023/05/31 00:10:00;;;;;;;4.10;2.78;;;8.80;99.90;;;;;;4972579;28;20061;-87
2023/05/31 00:12:26;;;;;;;5.15;2.70;;;8.80;99.90;;;;;;4975588;28;20173;-85
2023/05/31 00:14:55;;;;;;;3.75;2.50;;;8.70;99.90;;;;;;5005867;28;20057;-86
2023/05/31 00:17:21;;;;;;;5.68;2.70;;;8.70;99.90;;;;;;4995985;28;20076;-86
2023/05/31 00:19:47;;;;;;;5.05;2.70;;;8.70;99.90;;;;;;4993387;28;20041;-85
2023/05/31 00:22:19;;;;;;;4.13;2.53;;;8.70;99.90;;;;;;4997323;28;20403;-85
2023/05/31 00:24:48;;;;;;;4.32;2.83;;;8.70;99.90;;;;;;4993357;28;20033;-84
2023/05/31 00:27:15;;;;;;;4.30;2.63;;;8.60;99.90;;;;;;5002440;28;20392;-85
2023/05/31 00:29:41;;;;;;;6.30;2.57;;;8.60;99.90;;;;;;4992322;28;20046;-86
2023/05/31 00:32:07;;;;;;;4.95;2.42;;;8.60;99.90;;;;;;5013964;28;20056;-86
2023/05/31 00:34:33;;;;;;;4.25;2.50;;;8.60;99.90;;;;;;5026616;28;20038;-86
2023/05/31 00:36:59;;;;;;;4.13;2.30;;;8.60;99.90;;;;;;4992963;28;20095;-87
2023/05/31 00:39:25;;;;;;;6.18;2.55;;;8.60;99.90;;;;;;4993589;28;20030;-87
2023/05/31 00:41:55;;;;;;;4.05;2.38;;;8.60;99.90;;;;;;4993201;28;20522;-88
2023/05/31 00:44:21;;;;;;;6.07;3.33;;;8.50;99.90;;;;;;5014811;28;20387;-87
2023/05/31 00:46:56;;;;;;;4.20;2.35;;;8.50;99.90;;;;;;4994968;28;20049;-87
2023/05/31 00:49:22;;;;;;;3.03;2.30;;;8.60;99.90;;;;;;5010585;28;20216;-87
2023/05/31 00:51:49;;;;;;;3.63;2.50;;;8.60;99.90;;;;;;4979596;28;20132;-88
2023/05/31 00:54:15;;;;;;;3.28;2.28;;;8.60;99.90;;;;;;5012700;28;20137;-87
2023/05/31 00:56:41;;;;;;;2.70;1.85;;;8.50;99.90;;;;;;4996123;28;20058;-86
2023/05/31 00:59:08;;;;;;;4.60;1.65;;;8.50;99.90;;;;;;4995368;28;20042;-86
2023/05/31 01:01:38;;;;;;;3.22;1.83;;;8.50;99.90;;;;;;5004460;28;20088;-87
2023/05/31 01:04:04;;;;;;;2.75;1.65;;;8.50;99.90;;;;;;5009212;28;20100;-82
2023/05/31 01:06:32;;;;;;;3.13;2.20;;;8.40;99.90;;;;;;5025612;28;20046;-83
2023/05/31 01:09:07;;;;;;;3.72;1.50;;;8.40;99.90;;;;;;5008344;28;20550;-83
2023/05/31 01:11:56;;;;;;;2.85;1.70;;;8.40;99.90;;;;;;4991161;28;20367;-87
2023/05/31 01:14:32;;;;;;;;;;;8.40;99.90;;;;;;4990535;28;20042;-87
2023/05/31 01:17:13;;;;;;;2.50;1.60;;;;;;;;;;5017061;28;19932;-88
2023/05/31 01:19:49;;;;;;;4.75;2.10;;;8.30;99.90;;;;;;5009726;28;20038;-88
2023/05/31 01:22:28;;;;;;;4.00;2.45;;;8.30;99.90;;;;;;5002547;28;20046;-89
2023/05/31 01:25:25;;;;;;;3.85;2.05;;;8.20;99.90;;;;;;4994466;28;20179;-87
2023/05/31 01:27:53;;;;;;;4.43;2.22;;;8.20;99.90;;;;;;5000817;28;20500;-81
2023/05/31 01:30:22;;;;;;;3.92;2.30;;;8.20;99.90;;;;;;5007266;28;20201;-81
2023/05/31 01:32:48;;;;;;;5.22;2.88;;;8.20;99.90;;;;;;4992495;28;20096;-82
2023/05/31 01:35:15;;;;;;;5.03;2.72;;;8.20;99.90;;;;;;5007940;28;20061;-81
2023/05/31 01:38:01;;;;;;;3.80;2.90;;;8.20;99.90;;;;;;4991800;28;20068;-81
2023/05/31 01:40:26;;;;;;;7.13;3.00;;;8.30;99.90;;;;;;4991488;28;20547;-87
2023/05/31 01:42:53;;;;;;;6.35;3.20;;;8.30;99.90;;;;;;5007996;28;20109;-86
2023/05/31 01:45:19;;;;;;;6.07;2.92;;;8.20;99.90;;;;;;5008447;28;20052;-87
2023/05/31 01:47:47;;;;;;;5.50;2.90;;;8.20;99.90;;;;;;5007332;28;20041;-85
2023/05/31 01:50:14;;;;;;;6.10;3.47;;;8.20;99.90;;;;;;4995841;28;20040;-87
2023/05/31 01:52:40;;;;;;;4.75;3.55;;;8.30;99.90;;;;;;4989020;28;20053;-85
2023/05/31 01:55:07;;;;;;;5.13;3.43;;;8.30;99.90;;;;;;5005574;28;20041;-85
2023/05/31 01:57:40;;;;;;;5.55;3.50;;;8.30;99.90;;;;;;4992827;28;20497;-86
2023/05/31 02:00:11;;;;;;;8.20;3.75;;;8.30;99.90;;;;;;5007098;28;20053;-83
2023/05/31 02:02:46;;;;;;;7.22;3.90;;;8.30;99.90;;;;;;5007386;28;20054;-83
2023/05/31 02:05:12;;;;;;;5.15;3.22;;;8.30;99.90;;;;;;5008023;28;20099;-84
2023/05/31 02:07:43;;;;;;;6.65;3.55;;;8.30;99.90;;;;;;4992196;28;20045;-83
2023/05/31 02:10:11;;;;;;;7.25;3.70;;;8.30;99.90;;;;;;5008719;28;20060;-87
2023/05/31 02:12:38;;;;;;;6.13;3.40;;;8.30;99.90;;;;;;4993273;28;20073;-88
2023/05/31 02:15:10;;;;;;;5.43;3.33;;;8.30;99.90;;;;;;4988826;28;20042;-88
2023/05/31 02:17:43;;;;;;;6.95;3.63;;;8.30;99.90;;;;;;5012243;28;20052;-88
2023/05/31 02:20:13;;;;;;;7.28;3.55;;;8.30;99.90;;;;;;5008663;28;20070;-88
2023/05/31 02:22:44;;;;;;;6.10;3.75;;;8.30;99.90;;;;;;4992039;28;20042;-88
2023/05/31 02:25:11;;;;;;;6.28;3.72;;;8.30;99.90;;;;;;4986261;28;20041;-88
2023/05/31 02:27:38;;;;;;;7.50;3.78;;;8.30;99.90;;;;;;4998265;28;20127;-88
2023/05/31 02:30:06;;;;;;;7.17;3.47;;;8.30;99.90;;;;;;5008260;28;20042;-89
2023/05/31 02:32:37;;;;;;;5.50;3.83;;;8.30;99.90;;;;;;4991834;28;20476;-89
2023/05/31 02:35:10;;;;;;;8.05;3.50;;;8.30;99.90;;;;;;4992512;28;20034;-89
2023/05/31 02:37:39;;;;;;;11.98;4.20;;;8.30;99.90;;;;;;5025302;28;20480;-88
2023/05/31 02:40:09;;;;;;;6.38;3.60;;;8.30;99.90;;;;;;5007360;28;20048;-89
2023/05/31 02:42:36;;;;;;;11.45;4.25;;;8.20;99.90;;;;;;4987440;28;20054;-88
2023/05/31 02:45:02;;;;;;;7.35;3.25;;;8.30;99.90;;;;;;4997608;28;20097;-88
2023/05/31 02:47:28;;;;;;;5.10;3.17;;;8.20;99.90;;;;;;5006668;28;20057;-88
2023/05/31 02:49:54;;;;;;;9.82;3.75;;;8.20;99.90;;;;;;5018654;23;20061;-34
2023/05/31 02:52:20;;;;;;;14.18;3.75;;;8.20;99.90;;;;;;5005623;28;20037;-34
2023/05/31 02:54:46;;;;;;;50.00;5.70;;;8.20;99.90;;;;;;5005938;28;20030;-34
2023/05/31 02:57:12;;;;;;;102.20;7.55;;;8.20;99.90;;;;;;5015184;28;20052;-34
2023/05/31 02:59:37;;;;;;;49.40;5.78;;;8.20;99.90;;;;;;4988104;28;20045;-34
2023/05/31 03:02:04;;;;;;;31.30;4.63;;;8.10;99.90;;;;;;5009649;28;20667;-34
2023/05/31 03:04:31;;;;;;;39.92;5.65;;;8.10;99.90;;;;;;5005168;28;20042;-34
2023/05/31 03:06:57;;;;;;;18.60;4.00;;;8.10;99.90;;;;;;5006526;28;20046;-34
2023/05/31 03:09:23;;;;;;;11.07;3.50;;;8.10;99.90;;;;;;4977990;28;21041;-33
2023/05/31 03:11:49;;;;;;;31.52;4.55;;;8.10;99.90;;;;;;5022082;28;20136;-34
2023/05/31 03:14:14;;;;;;;20.73;3.58;;;8.10;99.90;;;;;;5007004;28;20499;-34
2023/05/31 03:16:40;;;;;;;6.97;3.30;;;8.10;99.90;;;;;;5007852;28;20030;-34
2023/05/31 03:19:06;;;;;;;22.30;3.67;;;8.10;99.90;;;;;;4994228;28;20062;-33
2023/05/31 03:21:31;;;;;;;85.05;5.15;;;8.10;99.90;;;;;;5005817;28;20054;-33
2023/05/31 03:23:57;;;;;;;93.30;5.38;;;8.10;99.90;;;;;;5000582;28;20545;-34
2023/05/31 03:26:23;;;;;;;49.20;4.53;;;8.10;99.90;;;;;;5005095;28;20038;-34
2023/05/31 03:28:49;;;;;;;47.17;4.32;;;8.00;99.90;;;;;;5005391;28;20042;-34
2023/05/31 03:31:15;;;;;;;39.95;4.32;;;7.90;99.90;;;;;;4987534;28;20120;-34
2023/05/31 03:33:40;;;;;;;31.63;4.25;;;7.90;99.90;;;;;;5005018;28;20135;-33
2023/05/31 03:36:06;;;;;;;10.57;3.40;;;7.90;99.90;;;;;;5001817;28;20054;-33
2023/05/31 03:38:32;;;;;;;10.23;3.53;;;7.90;99.90;;;;;;5001103;28;20050;-34
2023/05/31 03:40:59;;;;;;;10.35;3.13;;;7.90;99.90;;;;;;5008111;28;20096;-34
2023/05/31 03:43:50;;;;;;;18.77;3.38;;;8.00;99.90;;;;;;4992159;28;20053;-34
2023/05/31 03:46:16;;;;;;;11.65;2.75;;;7.90;99.90;;;;;;5009443;28;20045;-34
2023/05/31 03:48:42;;;;;;;13.93;3.30;;;7.90;99.90;;;;;;5005852;28;20197;-34
2023/05/31 03:51:07;;;;;;;8.10;2.70;;;7.90;99.90;;;;;;5005499;28;20057;-34
2023/05/31 03:53:33;;;;;;;10.75;3.13;;;8.00;99.90;;;;;;5001160;28;20034;-34
2023/05/31 03:55:59;;;;;;;5.55;2.83;;;7.90;99.90;;;;;;5008966;28;20034;-34
2023/05/31 03:58:24;;;;;;;5.80;2.85;;;7.90;99.90;;;;;;5008808;28;20117;-34
2023/05/31 04:00:51;;;;;;;5.25;3.20;;;8.00;99.90;;;;;;5006844;28;20045;-34
2023/05/31 04:03:17;;;;;;;4.30;2.42;;;8.00;99.90;;;;;;4988261;28;20088;-34
2023/05/31 04:05:44;;;;;;;5.10;2.40;;;8.00;99.90;;;;;;4988878;28;20099;-34
2023/05/31 04:08:13;;;;;;;4.30;1.85;;;8.00;99.90;;;;;;4989598;28;20045;-34
2023/05/31 04:10:42;;;;;;;4.80;2.55;;;8.00;99.90;;;;;;5010832;28;20068;-34
2023/05/31 04:13:08;;;;;;;5.15;2.03;;;8.00;99.90;;;;;;5006317;28;20423;-34
2023/05/31 04:15:38;;;;;;;7.45;2.95;;;8.00;99.90;;;;;;5005230;28;20104;-34
2023/05/31 04:18:06;;;;;;;6.28;3.03;;;8.00;99.90;;;;;;5006233;28;20037;-34
2023/05/31 04:20:31;;;;;;;;;;;8.10;99.90;;;;;;5008882;28;20060;-34
2023/05/31 04:22:57;;;;;;;6.18;3.28;;;8.20;99.90;;;;;;5006926;28;19917;-34
2023/05/31 04:25:23;;;;;;;6.65;3.50;;;8.20;99.90;;;;;;5007136;28;20034;-34
2023/05/31 04:27:50;;;;;;;8.05;4.40;;;8.30;99.90;;;;;;5005240;28;20044;-34
2023/05/31 04:30:20;;;;;;;8.55;4.00;;;8.40;99.90;;;;;;4997607;28;20034;-34
2023/05/31 04:32:52;;;;;;;9.38;3.63;;;8.40;99.90;;;;;;5008683;28;20555;-34
2023/05/31 04:35:18;;;;;;;10.50;4.47;;;8.50;99.90;;;;;;5007299;28;20492;-34
2023/05/31 04:38:04;;;;;;;9.35;4.20;;;8.50;99.90;;;;;;5006856;28;20045;-34
2023/05/31 04:40:31;;;;;;;8.73;3.90;;;8.60;99.90;;;;;;5002642;28;20050;-34
2023/05/31 04:43:00;;;;;;;6.80;4.03;;;8.70;99.90;;;;;;5006655;28;20073;-34
2023/05/31 04:45:30;;;;;;;9.65;4.93;;;8.80;99.90;;;;;;5003586;28;20045;-34
2023/05/31 04:47:57;;;;;;;8.25;4.25;;;8.80;99.90;;;;;;5005426;28;20487;-34
2023/05/31 04:50:23;;;;;;;8.10;4.57;;;9.00;99.90;;;;;;5007298;28;20108;-34
2023/05/31 04:52:50;;;;;;;9.07;5.10;;;9.00;99.90;;;;;;5007117;28;20046;-34
2023/05/31 04:55:16;;;;;;;8.93;5.28;;;9.10;99.90;;;;;;5012786;28;20390;-34
2023/05/31 04:57:42;;;;;;;10.35;4.85;;;9.30;99.90;;;;;;5012112;28;20108;-34
2023/05/31 05:00:10;;;;;;;8.52;5.20;;;9.30;99.90;;;;;;5012359;28;20483;-34
2023/05/31 05:02:35;;;;;;;;;;;9.50;99.90;;;;;;5009624;28;20574;-34
2023/05/31 05:05:03;;;;;;;9.35;4.45;;;9.60;99.90;;;;;;5009679;28;19964;-34
2023/05/31 05:07:29;;;;;;;9.57;4.78;;;9.70;99.90;;;;;;5008332;28;20546;-34
2023/05/31 05:09:55;;;;;;;10.60;5.03;;;9.80;99.90;;;;;;5010163;28;20125;-34
2023/05/31 05:12:21;;;;;;;9.20;4.05;;;9.90;99.90;;;;;;5009841;28;20040;-34
2023/05/31 05:14:47;;;;;;;12.68;5.03;;;10.00;99.90;;;;;;5007892;28;20064;-34
2023/05/31 05:17:12;;;;;;;10.88;5.40;;;10.10;99.90;;;;;;5008679;28;20042;-34
2023/05/31 05:19:38;;;;;;;8.48;4.93;;;10.30;99.90;;;;;;5010268;28;20464;-34
2023/05/31 05:22:04;;;;;;;12.48;4.93;;;10.50;99.90;;;;;;5009266;28;20048;-34
2023/05/31 05:24:31;;;;;;;9.70;4.90;;;10.60;99.90;;;;;;5009512;28;20041;-34
2023/05/31 05:26:57;;;;;;;11.43;5.10;;;10.80;99.90;;;;;;5007513;28;20038;-34
2023/05/31 05:29:23;;;;;;;11.27;5.07;;;10.90;99.90;;;;;;5014151;28;20034;-34
2023/05/31 05:31:50;;;;;;;11.98;5.50;;;11.00;99.90;;;;;;5010043;28;20033;-34
2023/05/31 05:34:16;;;;;;;9.60;4.93;;;11.20;99.90;;;;;;5010803;28;20059;-34
2023/05/31 05:36:42;;;;;;;10.30;5.20;;;11.30;99.90;;;;;;5015265;28;20595;-34
2023/05/31 05:39:08;;;;;;;12.75;5.18;;;11.40;99.90;;;;;;5008926;28;20114;-34
2023/05/31 05:41:34;;;;;;;12.35;4.90;;;11.50;99.90;;;;;;5005777;28;20041;-34
2023/05/31 05:44:09;;;;;;;11.18;5.60;;;11.70;99.90;;;;;;5011677;28;20069;-34
2023/05/31 05:46:35;;;;;;;13.93;5.30;;;11.80;99.90;;;;;;5007714;28;20069;-34
2023/05/31 05:49:05;;;;;;;12.65;5.57;;;12.00;99.90;;;;;;5008678;28;20101;-34
2023/05/31 05:51:31;;;;;;;8.18;4.38;;;12.50;99.90;;;;;;5007919;28;20445;-34
2023/05/31 05:53:57;;;;;;;9.25;4.70;;;13.60;99.90;;;;;;5010252;28;20030;-34
2023/05/31 05:56:23;;;;;;;12.45;5.60;;;14.80;99.90;;;;;;5008283;28;20045;-35
2023/05/31 05:58:50;;;;;;;8.50;4.47;;;16.10;99.90;;;;;;5012878;28;20049;-35
2023/05/31 06:01:20;;;;;;;9.35;4.40;;;17.10;99.90;;;;;;4988442;28;20488;-35
2023/05/31 06:03:50;;;;;;;9.32;4.40;;;17.70;99.90;;;;;;5009736;28;20399;-35
2023/05/31 06:06:18;;;;;;;6.32;3.92;;;18.30;99.90;;;;;;5009322;28;20049;-35
2023/05/31 06:08:44;;;;;;;;;;;18.70;99.90;;;;;;5009736;28;20527;-35
2023/05/31 06:12:00;;;;;;;10.23;4.00;;;19.10;99.90;;;;;;5007208;28;19955;-35
2023/05/31 06:15:06;;;;;;;6.70;3.30;;;19.80;99.90;;;;;;4999950;28;20042;-35
2023/05/31 06:17:31;;;;;;;6.25;3.35;;;20.20;99.90;;;;;;5003456;28;20053;-35
2023/05/31 06:19:58;;;;;;;7.95;3.75;;;20.50;99.90;;;;;;5008945;28;20042;-35
2023/05/31 06:22:23;;;;;;;9.55;3.75;;;20.20;99.90;;;;;;5008882;28;20515;-35
2023/05/31 06:25:09;;;;;;;8.40;4.00;;;19.40;99.90;;;;;;5004724;28;20046;-35
2023/05/31 06:27:35;;;;;;;5.22;3.08;;;18.40;99.90;;;;;;5008580;28;20045;-35
2023/05/31 06:30:02;;;;;;;7.75;3.13;;;17.70;99.90;;;;;;5008125;28;20038;-35
2023/05/31 06:32:37;;;;;;;7.88;3.85;;;17.20;99.90;;;;;;5004100;28;20040;-35
2023/05/31 06:35:04;;;;;;;5.25;3.60;;;16.80;99.90;;;;;;5005406;28;20037;-35
2023/05/31 06:37:31;;;;;;;4.80;2.90;;;16.60;99.90;;;;;;5005133;28;20042;-35
2023/05/31 06:39:57;;;;;;;6.72;2.97;;;16.60;99.90;;;;;;4987941;28;20518;-34
2023/05/31 06:42:23;;;;;;;6.80;3.00;;;16.40;99.90;;;;;;4987608;28;20053;-34
2023/05/31 06:44:50;;;;;;;6.10;2.40;;;16.50;99.90;;;;;;5006429;28;20045;-34
2023/05/31 06:47:16;;;;;;;7.75;2.70;;;16.50;99.90;;;;;;5005609;28;20491;-34
2023/05/31 06:49:42;;;;;;;4.68;2.55;;;16.60;99.90;;;;;;5005891;28;20476;-34
2023/05/31 06:52:08;;;;;;;3.87;2.20;;;16.70;99.90;;;;;;5005796;28;20120;-34
2023/05/31 06:54:37;;;;;;;6.63;2.42;;;16.70;99.90;;;;;;5005295;28;20041;-34
2023/05/31 06:57:04;;;;;;;4.40;1.77;;;17.30;99.90;;;;;;4987999;28;20064;-34
2023/05/31 06:59:30;;;;;;;4.97;1.73;;;18.30;99.90;;;;;;5005045;28;20050;-34
2023/05/31 07:01:56;;;;;;;5.75;1.48;;;19.40;99.90;;;;;;5004513;28;20038;-34
2023/05/31 07:04:22;;;;;;;2.78;1.40;;;20.40;99.90;;;;;;5005362;28;20050;-35
2023/05/31 07:06:48;;;;;;;5.43;1.42;;;21.20;99.90;;;;;;5004756;28;20057;-35
2023/05/31 07:09:14;;;;;;;2.95;1.23;;;21.70;99.90;;;;;;5006309;28;20038;-35
2023/05/31 07:11:40;;;;;;;2.95;1.30;;;22.20;99.90;;;;;;5006535;28;20491;-35
2023/05/31 07:14:05;;;;;;;3.38;1.08;;;22.60;99.90;;;;;;4988379;28;20611;-35
2023/05/31 07:16:31;;;;;;;5.20;1.20;;;23.00;99.90;;;;;;5002029;28;20415;-35
2023/05/31 07:18:57;;;;;;;2.58;0.90;;;23.30;99.90;;;;;;5004647;28;20046;-35
2023/05/31 07:21:23;;;;;;;2.63;1.10;;;23.40;99.90;;;;;;5006147;28;20410;-35
2023/05/31 07:23:48;;;;;;;2.60;0.70;;;23.70;99.90;;;;;;5006529;28;20045;-35
2023/05/31 07:26:15;;;;;;;3.40;1.08;;;24.10;99.90;;;;;;5003702;28;20149;-35
2023/05/31 07:28:42;;;;;;;;;;;24.40;99.90;;;;;;5003863;28;20042;-35
2023/05/31 07:31:07;;;;;;;2.15;0.80;;;24.30;99.90;;;;;;4988220;28;19917;-35
2023/05/31 07:33:33;;;;;;;1.93;0.60;;;24.70;99.90;;;;;;5004096;28;20052;-35
2023/05/31 07:36:00;;;;;;;3.43;0.90;;;24.40;99.90;;;;;;5005224;28;20044;-35
2023/05/31 07:38:26;;;;;;;5.07;1.00;;;24.40;99.90;;;;;;5003600;28;20046;-35
2023/05/31 07:40:52;;;;;;;2.43;0.77;;;24.30;99.90;;;;;;5007721;28;20040;-35
2023/05/31 07:43:21;;;;;;;3.15;0.90;;;24.40;99.90;;;;;;5004052;28;20037;-35
2023/05/31 07:45:50;;;;;;;2.45;1.00;;;24.40;99.90;;;;;;5005419;28;20073;-35
2023/05/31 07:48:19;;;;;;;3.85;1.13;;;24.20;99.90;;;;;;5002177;28;20392;-35
2023/05/31 07:50:45;;;;;;;3.42;1.08;;;24.30;99.90;;;;;;5004356;28;20054;-35
2023/05/31 07:53:12;;;;;;;4.03;1.08;;;24.30;99.90;;;;;;4983472;28;20492;-35
2023/05/31 07:55:38;;;;;;;2.47;0.90;;;24.40;99.90;;;;;;5009074;28;20339;-35
2023/05/31 07:58:04;;;;;;;6.40;1.30;;;24.60;99.90;;;;;;5003730;28;20403;-35
2023/05/31 08:00:30;;;;;;;4.70;1.10;;;24.70;99.90;;;;;;5005663;28;20515;-35
2023/05/31 08:02:55;;;;;;;2.43;0.80;;;24.50;99.90;;;;;;5005896;28;20049;-35
2023/05/31 08:05:21;;;;;;;3.90;1.23;;;24.40;99.90;;;;;;5004721;28;20042;-35
2023/05/31 08:07:48;;;;;;;3.17;0.93;;;23.90;99.90;;;;;;5006012;28;20395;-35
2023/05/31 08:10:16;;;;;;;2.08;1.00;;;23.10;99.90;;;;;;5007959;28;20049;-35
2023/05/31 08:12:41;;;;;;;4.32;1.10;;;22.50;99.90;;;;;;5004175;28;20141;-35
2023/05/31 08:15:08;;;;;;;4.32;1.52;;;21.90;99.90;;;;;;5005446;28;20117;-34
2023/05/31 08:17:34;;;;;;;4.53;1.30;;;21.50;99.90;;;;;;5004615;28;20149;-34
2023/05/31 08:20:00;;;;;;;4.15;1.58;;;21.20;99.90;;;;;;5003309;28;20128;-35
2023/05/31 08:22:26;;;;;;;4.63;1.60;;;21.00;99.90;;;;;;5018235;28;20627;-35
2023/05/31 08:24:52;;;;;;;3.75;1.27;;;20.90;99.90;;;;;;5005950;28;20045;-34
2023/05/31 08:27:17;;;;;;;2.67;1.40;;;20.80;99.90;;;;;;4994367;28;20064;-34
2023/05/31 08:29:43;;;;;;;4.47;1.40;;;21.00;99.90;;;;;;5002193;28;20812;-34
2023/05/31 08:32:09;;;;;;;3.75;1.30;;;21.10;99.90;;;;;;5014935;28;20041;-34
2023/05/31 08:34:35;;;;;;;6.30;1.70;;;21.00;99.90;;;;;;4986131;28;20117;-34
2023/05/31 08:37:01;;;;;;;6.28;1.58;;;20.90;99.90;;;;;;5004609;28;20049;-34
2023/05/31 08:39:31;;;;;;;3.90;1.58;;;21.00;99.90;;;;;;5014218;28;20057;-34
2023/05/31 08:42:04;;;;;;;5.25;1.60;;;21.50;99.90;;;;;;5023973;28;20041;-34
2023/05/31 08:44:30;;;;;;;6.75;2.20;;;21.20;99.90;;;;;;5008985;28;20224;-34
2023/05/31 08:47:12;;;;;;;6.33;1.90;;;21.00;99.90;;;;;;5006986;28;20050;-34
2023/05/31 08:49:40;;;;;;;4.22;1.95;;;21.70;99.90;;;;;;5007848;28;20481;-35
2023/05/31 08:52:07;;;;;;;4.90;1.92;;;22.20;99.90;;;;;;5005497;28;20046;-34
2023/05/31 08:54:34;;;;;;;5.38;1.98;;;22.50;99.90;;;;;;5005127;28;20042;-34
2023/05/31 08:57:02;;;;;;;6.32;1.80;;;22.50;99.90;;;;;;5006443;28;20103;-34
2023/05/31 08:59:29;;;;;;;6.00;1.90;;;22.50;99.90;;;;;;5007794;28;20477;-34
2023/05/31 09:01:55;;;;;;;5.45;2.30;;;22.70;99.90;;;;;;5008458;28;20038;-34
2023/05/31 09:04:23;;;;;;;4.70;2.08;;;22.70;99.90;;;;;;5008970;28;20053;-34
2023/05/31 09:06:50;;;;;;;5.47;2.08;;;22.90;99.90;;;;;;4995181;28;20555;-34
2023/05/31 09:09:16;;;;;;;4.87;1.73;;;22.90;99.90;;;;;;5006829;28;20116;-34
2023/05/31 09:11:41;;;;;;;11.95;2.40;;;22.60;99.90;;;;;;5009613;28;20460;-34
2023/05/31 09:14:10;;;;;;;4.85;2.08;;;22.40;99.90;;;;;;5006334;28;20373;-34
2023/05/31 09:16:36;;;;;;;4.63;2.35;;;22.30;99.90;;;;;;5004347;28;20054;-34
2023/05/31 09:19:05;;;;;;;4.17;1.70;;;22.10;99.90;;;;;;5006696;28;20107;-34
2023/05/31 09:21:45;;;;;;;6.60;2.45;;;21.90;99.90;;;;;;5007632;28;21033;-34
2023/05/31 09:24:13;;;;;;;6.70;2.65;;;21.30;99.90;;;;;;5012382;28;20049;-34
2023/05/31 09:27:00;;;;;;;6.40;2.60;;;20.70;99.90;;;;;;5006673;28;20436;-34
2023/05/31 09:29:26;;;;;;;9.95;3.00;;;20.30;99.90;;;;;;5007051;28;20049;-34
2023/05/31 09:32:09;;;;;;;6.55;2.72;;;19.80;99.90;;;;;;5001994;28;20052;-34
2023/05/31 09:34:36;;;;;;;4.70;2.35;;;19.50;99.90;;;;;;5005338;28;20077;-34
2023/05/31 09:37:03;;;;;;;6.88;2.80;;;19.30;99.90;;;;;;5007980;28;20041;-34
2023/05/31 09:39:30;;;;;;;;;;;19.30;99.90;;;;;;5007800;28;20042;-34
2023/05/31 09:41:56;;;;;;;5.90;2.72;;;19.20;99.90;;;;;;4998503;28;19925;-34
2023/05/31 09:44:27;;;;;;;5.60;2.50;;;19.00;99.90;;;;;;5002314;28;20374;-34
2023/05/31 09:46:53;;;;;;;11.85;2.90;;;18.90;99.90;;;;;;5001133;28;20049;-34
2023/05/31 09:49:24;;;;;;;5.15;2.45;;;18.90;99.90;;;;;;5004258;28;20034;-34
2023/05/31 09:51:53;;;;;;;10.10;2.83;;;18.90;99.90;;;;;;5008269;28;20108;-34
2023/05/31 09:54:24;;;;;;;5.68;2.95;;;18.90;99.90;;;;;;5000737;28;20041;-34
2023/05/31 09:56:51;;;;;;;3.70;2.65;;;18.90;99.90;;;;;;5001075;28;20026;-34
2023/05/31 09:59:21;;;;;;;5.38;2.45;;;18.80;99.90;;;;;;5006321;28;20049;-34
2023/05/31 10:01:50;;;;;;;5.32;2.60;;;18.70;99.90;;;;;;5002026;28;20516;-34
2023/05/31 10:04:16;;;;;;;6.25;2.40;;;18.80;99.90;;;;;;5006084;28;20076;-34
2023/05/31 10:06:44;;;;;;;4.43;2.30;;;18.90;99.90;;;;;;5011783;28;20173;-34
2023/05/31 10:09:10;;;;;;;4.50;2.72;;;19.00;99.90;;;;;;4989801;28;20046;-34
2023/05/31 10:11:38;;;;;;;5.45;2.78;;;19.10;99.90;;;;;;5005206;28;20030;-34
2023/05/31 10:14:20;;;;;;;4.78;2.63;;;19.10;99.90;;;;;;5005926;28;20061;-34
2023/05/31 10:16:50;;;;;;;5.03;2.70;;;19.30;99.90;;;;;;5000682;28;20077;-34
2023/05/31 10:19:24;;;;;;;5.03;2.55;;;19.40;99.90;;;;;;5003144;28;20060;-34
2023/05/31 10:21:50;;;;;;;4.65;2.67;;;19.40;99.90;;;;;;5001345;28;20077;-34
2023/05/31 10:25:05;;;;;;;5.77;2.90;;;19.50;99.90;;;;;;5007179;28;20120;-34
2023/05/31 10:27:44;;;;;;;5.63;2.88;;;19.50;99.90;;;;;;4995635;28;20405;-34
2023/05/31 10:30:12;;;;;;;7.20;3.10;;;19.50;99.90;;;;;;5005182;28;20036;-34
2023/05/31 10:32:46;;;;;;;5.15;2.95;;;19.50;99.90;;;;;;5006326;28;20547;-34
2023/05/31 10:35:12;;;;;;;5.25;2.90;;;19.60;99.90;;;;;;5004122;28;20080;-34
2023/05/31 10:37:41;;;;;;;4.95;2.80;;;19.60;99.90;;;;;;5007467;28;20046;-34
2023/05/31 10:40:30;;;;;;;8.02;2.75;;;19.40;99.90;;;;;;5006329;28;20084;-34
2023/05/31 10:42:59;;;;;;;;;;;19.50;99.90;;;;;;5008606;28;20045;-34
2023/05/31 10:45:41;;;;;;;5.85;2.70;;;19.60;99.90;;;;;;5006491;28;19918;-34
2023/05/31 10:48:27;;;;;;;5.63;2.95;;;19.60;99.90;;;;;;5004121;28;20096;-34
2023/05/31 10:50:58;;;;;;;5.93;2.25;;;19.80;99.90;;;;;;5005815;28;20080;-34
2023/05/31 10:53:47;;;;;;;4.30;2.53;;;19.70;99.90;;;;;;4981517;28;20400;-34
2023/05/31 10:56:14;;;;;;;6.07;2.50;;;19.80;99.90;;;;;;5017767;28;20037;-34
2023/05/31 10:58:51;;;;;;;4.35;2.33;;;19.80;99.90;;;;;;5007644;28;20052;-34
2023/05/31 11:01:20;;;;;;;4.13;2.37;;;19.90;99.90;;;;;;5003436;28;20045;-34
2023/05/31 11:03:53;;;;;;;3.25;1.95;;;19.90;99.90;;;;;;4991523;28;20540;-34
2023/05/31 11:06:34;;;;;;;4.95;2.08;;;19.90;99.90;;;;;;5006459;28;20099;-34
2023/05/31 11:09:11;;;;;;;5.57;2.30;;;19.80;99.90;;;;;;5012419;28;20116;-34
2023/05/31 11:11:39;;;;;;;5.90;2.13;;;19.80;99.90;;;;;;5006612;28;20042;-34
2023/05/31 11:14:10;;;;;;;4.75;2.20;;;19.90;99.90;;;;;;5007100;28;20042;-34
2023/05/31 11:16:48;;;;;;;6.60;2.00;;;19.80;99.90;;;;;;5005486;28;20069;-34
2023/05/31 11:19:17;;;;;;;6.03;1.90;;;19.60;99.90;;;;;;5002800;28;20113;-34
2023/05/31 11:21:52;;;;;;;4.63;1.58;;;19.60;99.90;;;;;;5006664;28;20038;-33
2023/05/31 11:24:50;;;;;;;4.05;1.65;;;19.80;99.90;;;;;;5022776;28;20472;-34
2023/05/31 11:27:23;;;;;;;5.85;1.88;;;19.80;99.90;;;;;;5000130;28;20068;-34
2023/05/31 11:29:52;;;;;;;6.03;2.00;;;19.70;99.90;;;;;;5006519;28;20069;-34
2023/05/31 11:32:24;;;;;;;3.92;1.70;;;19.50;99.90;;;;;;5005888;28;20125;-35
2023/05/31 11:35:00;;;;;;;5.22;2.20;;;19.40;99.90;;;;;;5005115;28;20381;-34
2023/05/31 11:37:31;;;;;;;4.53;1.73;;;19.40;99.90;;;;;;4972856;28;20132;-34
2023/05/31 11:40:01;;;;;;;4.15;2.10;;;19.50;99.90;;;;;;4997403;28;20120;-34
2023/05/31 11:42:40;;;;;;;5.07;1.92;;;19.50;99.90;;;;;;5006327;28;20050;-34
2023/05/31 11:45:15;;;;;;;5.63;1.67;;;19.50;99.90;;;;;;5001680;28;20125;-33
2023/05/31 11:48:21;;;;;;;4.03;1.50;;;19.50;99.90;;;;;;4982290;28;20121;-34
2023/05/31 11:50:47;;;;;;;4.38;1.80;;;19.50;99.90;;;;;;5004017;28;20461;-34
2023/05/31 11:53:13;;;;;;;4.47;2.10;;;19.50;99.90;;;;;;4999973;28;20049;-34
2023/05/31 11:55:47;;;;;;;4.47;1.88;;;19.50;99.90;;;;;;5004367;28;20404;-34
2023/05/31 11:58:20;;;;;;;6.70;2.13;;;19.50;99.90;;;;;;4984769;28;20338;-34
2023/05/31 12:00:47;;;;;;;5.55;1.92;;;19.50;99.90;;;;;;4985736;28;20045;-34
2023/05/31 12:03:20;;;;;;;5.13;1.93;;;19.50;99.90;;;;;;5004524;28;20538;-34
2023/05/31 12:05:51;;;;;;;3.90;1.52;;;19.40;99.90;;;;;;5003941;28;20084;-34
2023/05/31 12:08:17;;;;;;;5.80;1.73;;;19.40;99.90;;;;;;5004412;28;20089;-34
2023/05/31 12:10:42;;;;;;;7.32;2.00;;;19.40;99.90;;;;;;5024080;28;20611;-34
2023/05/31 12:13:09;;;;;;;5.75;2.28;;;19.30;99.90;;;;;;5002834;28;20264;-34
2023/05/31 12:15:35;;;;;;;5.82;1.90;;;19.30;99.90;;;;;;5001946;28;20057;-34
2023/05/31 12:18:01;;;;;;;3.75;1.80;;;19.20;99.90;;;;;;5002353;28;20038;-34
2023/05/31 12:20:29;;;;;;;4.15;2.28;;;19.10;99.90;;;;;;5004377;28;20506;-34
2023/05/31 12:23:15;;;;;;;7.28;2.20;;;18.90;99.90;;;;;;4988769;28;20045;-34
2023/05/31 12:25:48;;;;;;;4.40;2.20;;;18.90;99.90;;;;;;4999972;28;20077;-34
2023/05/31 12:28:17;;;;;;;4.53;2.42;;;18.80;99.90;;;;;;5002947;28;20082;-34
2023/05/31 12:30:47;;;;;;;5.55;3.03;;;18.80;99.90;;;;;;5004617;28;20431;-34
2023/05/31 12:33:13;;;;;;;5.53;2.47;;;18.70;99.90;;;;;;5004266;28;20061;-34
2023/05/31 12:35:40;;;;;;;6.47;2.85;;;18.70;99.90;;;;;;5003190;28;20049;-34
2023/05/31 12:38:07;;;;;;;;;;;18.70;99.90;;;;;;5010228;28;20264;-34
2023/05/31 12:40:37;;;;;;;7.90;4.35;;;18.80;99.90;;;;;;5005417;28;19929;-34
2023/05/31 12:43:02;;;;;;;8.40;4.10;;;18.50;99.90;;;;;;5006824;28;20057;-34
2023/05/31 12:45:28;;;;;;;7.57;3.80;;;18.40;99.90;;;;;;4987948;28;20046;-34
2023/05/31 12:47:58;;;;;;;16.15;3.55;;;18.30;99.90;;;;;;5004918;28;20045;-34
2023/05/31 12:50:27;;;;;;;4.95;2.90;;;18.20;99.90;;;;;;5004892;28;20062;-34
2023/05/31 12:52:57;;;;;;;5.57;2.42;;;18.20;99.90;;;;;;5005056;28;20200;-34
2023/05/31 12:55:23;;;;;;;4.20;2.38;;;18.10;99.90;;;;;;5004772;28;20524;-34
2023/05/31 12:57:49;;;;;;;4.25;2.53;;;18.00;99.90;;;;;;5002617;28;20037;-33
2023/05/31 13:00:16;;;;;;;6.22;2.40;;;17.90;99.90;;;;;;5015291;28;20042;-34
2023/05/31 13:02:42;;;;;;;7.22;2.90;;;17.90;99.90;;;;;;5003666;28;20115;-34